Time;durP1;ratioP1;P1;durP2;ratioP2;P2;SDS_P1;SDS_P2;PMS_P1;PMS_P2;Temp;Humidity;BMP_temperature;BMP_pressure;BME280_temperature;BME280_humidity;BME280_pressure;Samples;Min_cycle;Max_cycle;Signal;HPM_P1;HPM_P2
2023/12/13 00:18:09;;;;;;;13.98;9.25;;;;;;;21.10;55.09;99340.69;41694415;28;20053;-73
2023/12/13 00:38:10;;;;;;;13.57;8.48;;;;;;;21.07;55.00;99324.34;41659108;28;20042;-73
2023/12/13 00:58:10;;;;;;;10.35;7.97;;;;;;;21.03;54.89;99297.50;41672647;28;20039;-71
2023/12/13 01:18:10;;;;;;;10.80;7.80;;;;;;;20.99;55.22;99268.97;41680717;28;20944;-72
2023/12/13 01:38:11;;;;;;;9.45;7.75;;;;;;;20.95;55.07;99250.81;41662069;28;23312;-73
2023/12/13 01:58:12;;;;;;;9.18;7.00;;;;;;;20.93;55.36;99223.00;41691393;28;20368;-72
2023/12/13 02:18:16;;;;;;;9.00;7.03;;;;;;;20.92;55.42;99171.34;41664492;28;20060;-72
2023/12/13 02:38:16;;;;;;;8.07;6.63;;;;;;;20.88;55.35;99147.13;41663470;28;20140;-72
2023/12/13 02:58:18;;;;;;;7.60;6.18;;;;;;;20.86;55.42;99120.16;41675004;28;20149;-72
2023/12/13 03:18:19;;;;;;;6.78;5.80;;;;;;;20.84;55.17;99119.47;41702180;28;20049;-70
2023/12/13 03:38:20;;;;;;;6.57;5.82;;;;;;;20.82;55.01;99091.66;41684281;28;20056;-72
2023/12/13 03:58:20;;;;;;;6.60;5.53;;;;;;;20.76;55.23;99050.97;41704120;28;20391;-71
2023/12/13 04:18:21;;;;;;;6.03;5.43;;;;;;;20.75;54.96;99049.31;41706365;28;20191;-71
2023/12/13 04:38:21;;;;;;;5.35;4.85;;;;;;;20.71;55.24;99032.97;41693315;28;20044;-71
2023/12/13 04:58:22;;;;;;;5.43;4.68;;;;;;;20.69;55.35;99021.78;41681838;28;20091;-72
2023/12/13 05:18:23;;;;;;;5.10;4.50;;;;;;;20.94;54.67;99028.13;41624972;28;20063;-67
2023/12/13 05:38:23;;;;;;;5.15;4.20;;;;;;;21.63;53.15;99024.91;41613528;28;20060;-74
2023/12/13 05:58:26;;;;;;;14.18;6.10;;;;;;;21.81;54.45;98995.84;41611673;28;20050;-81
2023/12/13 06:18:26;;;;;;;16.95;5.85;;;;;;;21.83;54.86;98977.28;41609634;28;20107;-78
2023/12/13 06:38:26;;;;;;;16.77;6.15;;;;;;;21.74;54.22;98971.16;41619669;28;20076;-78
2023/12/13 06:58:27;;;;;;;8.45;4.85;;;;;;;20.94;49.74;98999.16;41650987;28;20139;-76
2023/12/13 07:18:27;;;;;;;13.63;4.20;;;;;;;21.59;51.71;98974.34;41648679;28;20049;-77
2023/12/13 07:38:27;;;;;;;9.23;3.70;;;;;;;21.65;52.33;98972.06;41615266;28;20095;-77
2023/12/13 07:58:28;;;;;;;7.35;3.53;;;;;;;;;;41602563;28;20045;-74
2023/12/13 08:18:28;;;;;;;6.72;3.72;;;;;;;21.79;51.88;98928.50;41610536;28;20052;-76
2023/12/13 08:38:29;;;;;;;6.05;3.80;;;;;;;21.67;51.75;98920.88;41597852;28;20053;-75
2023/12/13 08:58:29;;;;;;;13.00;5.13;;;;;;;21.73;51.41;98930.78;41628054;28;20504;-72
2023/12/13 09:18:30;;;;;;;10.57;5.20;;;;;;;21.63;50.88;98916.91;41636139;28;20061;-71
2023/12/13 09:38:30;;;;;;;10.60;6.07;;;;;;;21.48;51.28;98921.09;41663802;28;20503;-72
2023/12/13 09:58:30;;;;;;;8.80;5.45;;;;;;;21.42;50.72;98920.72;41656142;28;20353;-72
2023/12/13 10:18:31;;;;;;;7.70;5.00;;;;;;;21.44;50.17;98921.38;41653013;28;21267;-70
2023/12/13 10:38:32;;;;;;;8.45;5.20;;;;;;;21.40;50.07;98882.38;41686929;28;20053;-70
2023/12/13 10:58:34;;;;;;;6.43;4.63;;;;;;;21.38;49.78;98858.81;41661923;28;20335;-71
2023/12/13 11:18:34;;;;;;;6.25;5.10;;;;;;;21.38;49.80;98826.41;41661274;28;20041;-71
2023/12/13 11:38:35;;;;;;;7.68;5.28;;;;;;;21.33;49.64;98789.19;41645895;28;20044;-71
2023/12/13 11:58:35;;;;;;;6.45;4.75;;;;;;;21.34;49.42;98793.50;41672000;28;21222;-71
2023/12/13 12:18:40;;;;;;;5.82;4.40;;;;;;;21.35;48.76;98801.22;41644933;28;20488;-70
2023/12/13 12:38:41;;;;;;;8.07;4.85;;;;;;;21.36;48.90;98813.41;41655767;28;20053;-70
2023/12/13 12:58:41;;;;;;;6.40;4.35;;;;;;;21.33;48.71;98813.72;41643993;28;20467;-71
2023/12/13 13:18:41;;;;;;;6.22;4.65;;;;;;;21.27;48.60;98799.34;41579922;28;20045;-71
2023/12/13 13:38:42;;;;;;;4.90;4.38;;;;;;;21.24;48.45;98783.09;41628050;28;20500;-71
2023/12/13 13:58:44;;;;;;;5.10;4.07;;;;;;;21.29;47.78;98783.44;41680474;28;20080;-71
2023/12/13 14:18:44;;;;;;;6.55;4.38;;;;;;;21.30;47.67;98787.72;41587783;28;20056;-71
2023/12/13 14:38:46;;;;;;;6.82;4.50;;;;;;;21.42;47.96;98793.50;41641607;28;20049;-73
2023/12/13 14:58:47;;;;;;;6.68;4.43;;;;;;;21.22;48.38;98800.84;41694791;28;20129;-70
2023/12/13 15:18:47;;;;;;;5.75;4.18;;;;;;;21.16;48.16;98788.31;41689916;28;20096;-70
2023/12/13 15:38:47;;;;;;;5.72;4.30;;;;;;;21.04;48.90;98772.78;41697165;28;20418;-70
2023/12/13 15:58:48;;;;;;;5.05;4.03;;;;;;;20.96;48.34;98756.97;41694006;28;20152;-70
2023/12/13 16:18:48;;;;;;;5.22;4.07;;;;;;;20.92;48.60;98790.66;41692101;28;20053;-69
2023/12/13 16:38:49;;;;;;;5.05;4.07;;;;;;;20.95;48.63;98769.28;41694352;28;20451;-70
2023/12/13 16:58:49;;;;;;;7.05;4.07;;;;;;;20.90;49.12;98753.16;41671336;28;20053;-68
2023/12/13 17:18:50;;;;;;;6.00;4.43;;;;;;;21.06;48.71;98749.75;41673286;28;20520;-66
2023/12/13 17:38:50;;;;;;;7.95;4.53;;;;;;;21.16;49.15;98761.97;41628793;28;20506;-67
2023/12/13 17:58:51;;;;;;;9.15;5.63;;;;;;;21.21;49.96;98773.66;41605777;28;20053;-66
2023/12/13 18:18:51;;;;;;;7.68;5.43;;;;;;;21.30;50.33;98761.38;41660375;28;20445;-67
2023/12/13 18:38:52;;;;;;;7.40;4.90;;;;;;;21.24;50.54;98760.19;41641221;28;20429;-77
2023/12/13 18:58:53;;;;;;;9.50;5.65;;;;;;;21.26;51.44;98767.94;41637962;28;20079;-69
2023/12/13 19:18:56;;;;;;;7.20;5.28;;;;;;;21.14;51.49;98783.22;41657912;28;20046;-67
2023/12/13 19:38:57;;;;;;;7.82;5.03;;;;;;;21.16;51.72;98819.88;41634041;28;20037;-70
2023/12/13 19:58:58;;;;;;;15.43;5.05;;;;;;;20.98;52.46;98825.22;41618192;28;20041;-66
2023/12/13 20:18:59;;;;;;;17.10;6.60;;;;;;;20.94;52.13;98854.44;41674269;28;20053;-66
2023/12/13 20:39:01;;;;;;;10.05;5.93;;;;;;;21.02;51.79;98827.38;41665933;28;20054;-66
2023/12/13 20:59:03;;;;;;;12.18;6.55;;;;;;;21.03;52.35;98841.34;41651768;28;20046;-67
2023/12/13 21:19:03;;;;;;;9.30;6.38;;;;;;;20.99;52.10;98834.75;41648192;28;20057;-66
2023/12/13 21:39:04;;;;;;;8.07;5.82;;;;;;;20.98;52.54;98820.75;41640855;28;20042;-66
2023/12/13 21:59:04;;;;;;;8.32;6.10;;;;;;;20.95;53.45;98832.44;41640493;28;20049;-66
2023/12/13 22:19:25;;;;;;;7.72;5.35;;;;;;;20.91;53.58;98823.19;41663959;28;20075;-66
2023/12/13 22:39:26;;;;;;;10.48;5.57;;;;;;;20.84;53.59;98822.16;41702432;28;20373;-66
2023/12/13 22:59:26;;;;;;;5.63;4.32;;;;;;;20.84;53.42;98814.28;41713002;28;20037;-66
2023/12/13 23:19:27;;;;;;;6.18;4.57;;;;;;;20.80;53.58;98836.63;41718837;28;20053;-66
2023/12/13 23:39:27;;;;;;;5.70;4.63;;;;;;;20.75;53.59;98883.59;41665059;28;20056;-68
2023/12/13 23:59:28;;;;;;;4.45;3.70;;;;;;;20.72;53.73;98862.88;41693635;28;20536;-66
